sensor_id;sensor_type;location;lat;lon;timestamp;P1;durP1;ratioP1;P2;durP2;ratioP2
55007;SDS011;40902;45.116;21.296;2023-04-16T00:02:17;4.80;;;2.17;;
55007;SDS011;40902;45.116;21.296;2023-04-16T00:04:43;4.32;;;1.95;;
55007;SDS011;40902;45.116;21.296;2023-04-16T00:07:08;3.53;;;1.85;;
55007;SDS011;40902;45.116;21.296;2023-04-16T00:09:34;4.05;;;1.85;;
55007;SDS011;40902;45.116;21.296;2023-04-16T00:12:00;5.10;;;1.70;;
55007;SDS011;40902;45.116;21.296;2023-04-16T00:14:25;4.22;;;1.73;;
55007;SDS011;40902;45.116;21.296;2023-04-16T00:16:51;4.38;;;1.90;;
55007;SDS011;40902;45.116;21.296;2023-04-16T00:19:17;3.95;;;1.60;;
55007;SDS011;40902;45.116;21.296;2023-04-16T00:21:43;3.33;;;1.60;;
55007;SDS011;40902;45.116;21.296;2023-04-16T00:24:09;4.10;;;2.08;;
55007;SDS011;40902;45.116;21.296;2023-04-16T00:26:34;4.22;;;1.73;;
55007;SDS011;40902;45.116;21.296;2023-04-16T00:29:00;5.43;;;1.80;;
55007;SDS011;40902;45.116;21.296;2023-04-16T00:31:26;5.63;;;1.70;;
55007;SDS011;40902;45.116;21.296;2023-04-16T00:33:53;3.15;;;1.65;;
55007;SDS011;40902;45.116;21.296;2023-04-16T00:36:19;3.88;;;1.80;;
55007;SDS011;40902;45.116;21.296;2023-04-16T00:38:47;4.65;;;1.90;;
55007;SDS011;40902;45.116;21.296;2023-04-16T00:41:12;3.47;;;1.70;;
55007;SDS011;40902;45.116;21.296;2023-04-16T00:43:38;5.05;;;2.20;;
55007;SDS011;40902;45.116;21.296;2023-04-16T00:46:04;5.45;;;1.60;;
55007;SDS011;40902;45.116;21.296;2023-04-16T00:48:33;4.70;;;2.17;;
55007;SDS011;40902;45.116;21.296;2023-04-16T00:51:00;4.00;;;1.83;;
55007;SDS011;40902;45.116;21.296;2023-04-16T00:53:28;4.15;;;1.77;;
55007;SDS011;40902;45.116;21.296;2023-04-16T00:55:55;5.30;;;2.00;;
55007;SDS011;40902;45.116;21.296;2023-04-16T00:58:21;4.78;;;1.80;;
55007;SDS011;40902;45.116;21.296;2023-04-16T01:00:47;4.05;;;1.85;;
55007;SDS011;40902;45.116;21.296;2023-04-16T01:03:15;4.35;;;1.77;;
55007;SDS011;40902;45.116;21.296;2023-04-16T01:05:41;4.85;;;1.70;;
55007;SDS011;40902;45.116;21.296;2023-04-16T01:08:14;6.35;;;2.30;;
55007;SDS011;40902;45.116;21.296;2023-04-16T01:10:45;3.42;;;1.88;;
55007;SDS011;40902;45.116;21.296;2023-04-16T01:13:11;4.30;;;1.80;;
55007;SDS011;40902;45.116;21.296;2023-04-16T01:15:36;3.65;;;1.67;;
55007;SDS011;40902;45.116;21.296;2023-04-16T01:18:11;6.82;;;2.25;;
55007;SDS011;40902;45.116;21.296;2023-04-16T01:20:38;3.15;;;2.05;;
55007;SDS011;40902;45.116;21.296;2023-04-16T01:23:04;3.53;;;1.88;;
55007;SDS011;40902;45.116;21.296;2023-04-16T01:25:30;4.40;;;1.90;;
55007;SDS011;40902;45.116;21.296;2023-04-16T01:27:56;4.65;;;1.90;;
55007;SDS011;40902;45.116;21.296;2023-04-16T01:30:23;4.78;;;1.90;;
55007;SDS011;40902;45.116;21.296;2023-04-16T01:32:49;3.42;;;1.50;;
55007;SDS011;40902;45.116;21.296;2023-04-16T01:35:15;3.65;;;1.88;;
55007;SDS011;40902;45.116;21.296;2023-04-16T01:37:42;3.00;;;1.45;;
55007;SDS011;40902;45.116;21.296;2023-04-16T01:40:08;4.68;;;1.77;;
55007;SDS011;40902;45.116;21.296;2023-04-16T01:42:34;3.13;;;1.50;;
55007;SDS011;40902;45.116;21.296;2023-04-16T01:45:00;4.72;;;1.90;;
55007;SDS011;40902;45.116;21.296;2023-04-16T01:47:25;4.68;;;1.90;;
55007;SDS011;40902;45.116;21.296;2023-04-16T01:49:51;4.40;;;1.60;;
55007;SDS011;40902;45.116;21.296;2023-04-16T01:52:17;5.18;;;1.90;;
55007;SDS011;40902;45.116;21.296;2023-04-16T01:54:43;5.70;;;1.80;;
55007;SDS011;40902;45.116;21.296;2023-04-16T01:57:09;5.03;;;1.73;;
55007;SDS011;40902;45.116;21.296;2023-04-16T01:59:35;3.15;;;1.48;;
55007;SDS011;40902;45.116;21.296;2023-04-16T02:02:10;4.28;;;1.92;;
55007;SDS011;40902;45.116;21.296;2023-04-16T02:04:41;4.65;;;1.73;;
55007;SDS011;40902;45.116;21.296;2023-04-16T02:07:09;3.25;;;1.50;;
55007;SDS011;40902;45.116;21.296;2023-04-16T02:09:36;3.65;;;1.80;;
55007;SDS011;40902;45.116;21.296;2023-04-16T02:12:02;3.63;;;2.08;;
55007;SDS011;40902;45.116;21.296;2023-04-16T02:14:28;4.60;;;2.05;;
55007;SDS011;40902;45.116;21.296;2023-04-16T02:16:54;4.70;;;1.80;;
55007;SDS011;40902;45.116;21.296;2023-04-16T02:19:20;3.35;;;1.67;;
55007;SDS011;40902;45.116;21.296;2023-04-16T02:21:46;4.88;;;2.10;;
55007;SDS011;40902;45.116;21.296;2023-04-16T02:24:12;4.90;;;1.90;;
55007;SDS011;40902;45.116;21.296;2023-04-16T02:26:38;3.50;;;1.70;;
55007;SDS011;40902;45.116;21.296;2023-04-16T02:29:03;4.53;;;1.92;;
55007;SDS011;40902;45.116;21.296;2023-04-16T02:31:29;3.70;;;1.92;;
55007;SDS011;40902;45.116;21.296;2023-04-16T02:33:55;6.28;;;2.17;;
55007;SDS011;40902;45.116;21.296;2023-04-16T02:36:21;3.75;;;1.80;;
55007;SDS011;40902;45.116;21.296;2023-04-16T02:38:47;5.13;;;1.90;;
55007;SDS011;40902;45.116;21.296;2023-04-16T02:41:13;7.13;;;2.10;;
55007;SDS011;40902;45.116;21.296;2023-04-16T02:43:39;6.03;;;2.00;;
55007;SDS011;40902;45.116;21.296;2023-04-16T02:46:04;3.47;;;2.20;;
55007;SDS011;40902;45.116;21.296;2023-04-16T02:48:30;5.97;;;2.35;;
55007;SDS011;40902;45.116;21.296;2023-04-16T02:50:56;5.72;;;2.13;;
55007;SDS011;40902;45.116;21.296;2023-04-16T02:53:22;3.78;;;1.80;;
55007;SDS011;40902;45.116;21.296;2023-04-16T02:55:49;4.25;;;2.00;;
55007;SDS011;40902;45.116;21.296;2023-04-16T02:58:18;4.68;;;1.80;;
55007;SDS011;40902;45.116;21.296;2023-04-16T03:00:48;3.63;;;1.70;;
55007;SDS011;40902;45.116;21.296;2023-04-16T03:03:14;4.10;;;2.10;;
55007;SDS011;40902;45.116;21.296;2023-04-16T03:05:40;5.00;;;2.05;;
55007;SDS011;40902;45.116;21.296;2023-04-16T03:08:06;3.03;;;1.98;;
55007;SDS011;40902;45.116;21.296;2023-04-16T03:10:32;5.72;;;2.05;;
55007;SDS011;40902;45.116;21.296;2023-04-16T03:12:59;3.17;;;1.83;;
55007;SDS011;40902;45.116;21.296;2023-04-16T03:15:25;6.55;;;2.10;;
55007;SDS011;40902;45.116;21.296;2023-04-16T03:17:51;5.30;;;2.10;;
55007;SDS011;40902;45.116;21.296;2023-04-16T03:20:17;6.07;;;2.33;;
55007;SDS011;40902;45.116;21.296;2023-04-16T03:22:44;4.68;;;2.45;;
55007;SDS011;40902;45.116;21.296;2023-04-16T03:25:10;5.88;;;2.05;;
55007;SDS011;40902;45.116;21.296;2023-04-16T03:27:36;5.68;;;1.77;;
55007;SDS011;40902;45.116;21.296;2023-04-16T03:30:04;5.70;;;2.20;;
55007;SDS011;40902;45.116;21.296;2023-04-16T03:32:40;5.72;;;2.10;;
55007;SDS011;40902;45.116;21.296;2023-04-16T03:35:07;5.93;;;1.92;;
55007;SDS011;40902;45.116;21.296;2023-04-16T03:37:33;5.10;;;2.10;;
55007;SDS011;40902;45.116;21.296;2023-04-16T03:39:59;4.15;;;1.80;;
55007;SDS011;40902;45.116;21.296;2023-04-16T03:42:25;3.63;;;1.90;;
55007;SDS011;40902;45.116;21.296;2023-04-16T03:44:51;4.68;;;2.10;;
55007;SDS011;40902;45.116;21.296;2023-04-16T03:47:18;3.20;;;1.83;;
55007;SDS011;40902;45.116;21.296;2023-04-16T03:49:44;4.55;;;2.05;;
55007;SDS011;40902;45.116;21.296;2023-04-16T03:52:10;3.35;;;1.77;;
55007;SDS011;40902;45.116;21.296;2023-04-16T03:54:36;4.22;;;1.88;;
55007;SDS011;40902;45.116;21.296;2023-04-16T03:57:01;3.88;;;1.98;;
55007;SDS011;40902;45.116;21.296;2023-04-16T03:59:27;5.47;;;2.00;;
55007;SDS011;40902;45.116;21.296;2023-04-16T04:01:53;3.30;;;2.03;;
55007;SDS011;40902;45.116;21.296;2023-04-16T04:04:20;4.95;;;2.15;;
55007;SDS011;40902;45.116;21.296;2023-04-16T04:06:45;5.88;;;2.33;;
55007;SDS011;40902;45.116;21.296;2023-04-16T04:09:11;5.18;;;1.73;;
55007;SDS011;40902;45.116;21.296;2023-04-16T04:11:37;6.93;;;2.72;;
55007;SDS011;40902;45.116;21.296;2023-04-16T04:14:03;4.97;;;2.00;;
55007;SDS011;40902;45.116;21.296;2023-04-16T04:16:30;5.25;;;2.28;;
55007;SDS011;40902;45.116;21.296;2023-04-16T04:18:56;6.00;;;2.40;;
55007;SDS011;40902;45.116;21.296;2023-04-16T04:21:21;5.75;;;2.40;;
55007;SDS011;40902;45.116;21.296;2023-04-16T04:23:47;6.57;;;2.30;;
55007;SDS011;40902;45.116;21.296;2023-04-16T04:26:13;4.43;;;2.15;;
55007;SDS011;40902;45.116;21.296;2023-04-16T04:28:39;6.43;;;2.67;;
55007;SDS011;40902;45.116;21.296;2023-04-16T04:31:05;8.52;;;2.92;;
55007;SDS011;40902;45.116;21.296;2023-04-16T04:33:30;4.05;;;2.08;;
55007;SDS011;40902;45.116;21.296;2023-04-16T04:35:56;11.45;;;2.65;;
55007;SDS011;40902;45.116;21.296;2023-04-16T04:38:22;5.90;;;2.50;;
55007;SDS011;40902;45.116;21.296;2023-04-16T04:40:51;4.18;;;2.00;;
55007;SDS011;40902;45.116;21.296;2023-04-16T04:43:20;4.88;;;2.65;;
55007;SDS011;40902;45.116;21.296;2023-04-16T04:45:46;6.35;;;3.15;;
55007;SDS011;40902;45.116;21.296;2023-04-16T04:48:13;13.18;;;8.95;;
55007;SDS011;40902;45.116;21.296;2023-04-16T04:50:39;12.68;;;7.78;;
55007;SDS011;40902;45.116;21.296;2023-04-16T04:53:05;11.55;;;7.15;;
55007;SDS011;40902;45.116;21.296;2023-04-16T04:55:37;8.63;;;5.28;;
55007;SDS011;40902;45.116;21.296;2023-04-16T04:58:04;9.35;;;5.13;;
55007;SDS011;40902;45.116;21.296;2023-04-16T05:00:31;5.90;;;3.97;;
55007;SDS011;40902;45.116;21.296;2023-04-16T05:03:00;7.22;;;3.70;;
55007;SDS011;40902;45.116;21.296;2023-04-16T05:05:26;8.32;;;3.55;;
55007;SDS011;40902;45.116;21.296;2023-04-16T05:07:52;5.85;;;3.42;;
55007;SDS011;40902;45.116;21.296;2023-04-16T05:10:18;6.82;;;3.75;;
55007;SDS011;40902;45.116;21.296;2023-04-16T05:12:45;8.75;;;4.00;;
55007;SDS011;40902;45.116;21.296;2023-04-16T05:15:12;6.93;;;4.20;;
55007;SDS011;40902;45.116;21.296;2023-04-16T05:17:38;6.93;;;3.97;;
55007;SDS011;40902;45.116;21.296;2023-04-16T05:20:05;7.65;;;3.50;;
55007;SDS011;40902;45.116;21.296;2023-04-16T05:22:32;6.97;;;3.55;;
55007;SDS011;40902;45.116;21.296;2023-04-16T05:24:57;6.25;;;3.25;;
55007;SDS011;40902;45.116;21.296;2023-04-16T05:27:23;6.55;;;3.30;;
55007;SDS011;40902;45.116;21.296;2023-04-16T05:29:49;7.40;;;3.38;;
55007;SDS011;40902;45.116;21.296;2023-04-16T05:32:15;6.85;;;3.40;;
55007;SDS011;40902;45.116;21.296;2023-04-16T05:34:40;8.32;;;3.72;;
55007;SDS011;40902;45.116;21.296;2023-04-16T05:37:06;7.28;;;3.90;;
55007;SDS011;40902;45.116;21.296;2023-04-16T05:39:32;7.00;;;3.67;;
55007;SDS011;40902;45.116;21.296;2023-04-16T05:41:57;8.07;;;4.63;;
55007;SDS011;40902;45.116;21.296;2023-04-16T05:44:23;11.30;;;5.63;;
55007;SDS011;40902;45.116;21.296;2023-04-16T05:46:49;7.95;;;4.88;;
55007;SDS011;40902;45.116;21.296;2023-04-16T05:49:15;11.93;;;5.85;;
55007;SDS011;40902;45.116;21.296;2023-04-16T05:51:43;8.27;;;4.97;;
55007;SDS011;40902;45.116;21.296;2023-04-16T05:54:08;8.45;;;4.20;;
55007;SDS011;40902;45.116;21.296;2023-04-16T05:56:34;8.20;;;4.55;;
55007;SDS011;40902;45.116;21.296;2023-04-16T05:59:00;7.82;;;4.80;;
55007;SDS011;40902;45.116;21.296;2023-04-16T06:01:25;8.60;;;4.43;;
55007;SDS011;40902;45.116;21.296;2023-04-16T06:03:51;5.85;;;3.60;;
55007;SDS011;40902;45.116;21.296;2023-04-16T06:06:17;6.50;;;3.92;;
55007;SDS011;40902;45.116;21.296;2023-04-16T06:08:43;7.78;;;4.68;;
55007;SDS011;40902;45.116;21.296;2023-04-16T06:11:08;8.77;;;4.47;;
55007;SDS011;40902;45.116;21.296;2023-04-16T06:13:34;6.15;;;3.90;;
55007;SDS011;40902;45.116;21.296;2023-04-16T06:16:00;6.25;;;3.90;;
55007;SDS011;40902;45.116;21.296;2023-04-16T06:18:26;6.95;;;4.10;;
55007;SDS011;40902;45.116;21.296;2023-04-16T06:20:51;9.93;;;4.40;;
55007;SDS011;40902;45.116;21.296;2023-04-16T06:23:17;9.40;;;4.97;;
55007;SDS011;40902;45.116;21.296;2023-04-16T06:25:43;8.85;;;4.35;;
55007;SDS011;40902;45.116;21.296;2023-04-16T06:28:09;9.63;;;5.78;;
55007;SDS011;40902;45.116;21.296;2023-04-16T06:30:34;8.63;;;4.78;;
55007;SDS011;40902;45.116;21.296;2023-04-16T06:33:00;6.65;;;3.58;;
55007;SDS011;40902;45.116;21.296;2023-04-16T06:35:26;8.07;;;3.92;;
55007;SDS011;40902;45.116;21.296;2023-04-16T06:37:51;5.88;;;3.25;;
55007;SDS011;40902;45.116;21.296;2023-04-16T06:40:17;7.78;;;3.80;;
55007;SDS011;40902;45.116;21.296;2023-04-16T06:42:43;8.23;;;3.13;;
55007;SDS011;40902;45.116;21.296;2023-04-16T06:45:09;14.60;;;10.30;;
55007;SDS011;40902;45.116;21.296;2023-04-16T06:47:35;12.98;;;10.15;;
55007;SDS011;40902;45.116;21.296;2023-04-16T06:50:01;7.45;;;3.38;;
55007;SDS011;40902;45.116;21.296;2023-04-16T06:52:27;6.10;;;3.15;;
55007;SDS011;40902;45.116;21.296;2023-04-16T06:54:53;4.63;;;2.85;;
55007;SDS011;40902;45.116;21.296;2023-04-16T06:57:19;3.83;;;2.30;;
55007;SDS011;40902;45.116;21.296;2023-04-16T06:59:45;4.55;;;2.67;;
55007;SDS011;40902;45.116;21.296;2023-04-16T07:02:10;4.10;;;2.53;;
55007;SDS011;40902;45.116;21.296;2023-04-16T07:04:36;4.97;;;2.10;;
55007;SDS011;40902;45.116;21.296;2023-04-16T07:07:02;9.77;;;8.85;;
55007;SDS011;40902;45.116;21.296;2023-04-16T07:09:28;6.38;;;3.85;;
55007;SDS011;40902;45.116;21.296;2023-04-16T07:11:53;10.18;;;7.47;;
55007;SDS011;40902;45.116;21.296;2023-04-16T07:14:19;17.17;;;11.48;;
55007;SDS011;40902;45.116;21.296;2023-04-16T07:16:45;10.68;;;6.00;;
55007;SDS011;40902;45.116;21.296;2023-04-16T07:19:11;67.25;;;32.47;;
55007;SDS011;40902;45.116;21.296;2023-04-16T07:21:36;31.50;;;15.75;;
55007;SDS011;40902;45.116;21.296;2023-04-16T07:24:02;131.80;;;68.57;;
55007;SDS011;40902;45.116;21.296;2023-04-16T07:26:28;93.32;;;48.00;;
55007;SDS011;40902;45.116;21.296;2023-04-16T07:28:54;66.28;;;37.22;;
55007;SDS011;40902;45.116;21.296;2023-04-16T07:31:20;84.10;;;51.53;;
55007;SDS011;40902;45.116;21.296;2023-04-16T07:33:45;145.48;;;96.03;;
55007;SDS011;40902;45.116;21.296;2023-04-16T07:36:11;36.58;;;22.33;;
55007;SDS011;40902;45.116;21.296;2023-04-16T07:38:37;41.70;;;29.02;;
55007;SDS011;40902;45.116;21.296;2023-04-16T07:41:03;14.27;;;9.52;;
55007;SDS011;40902;45.116;21.296;2023-04-16T07:43:29;14.65;;;9.65;;
55007;SDS011;40902;45.116;21.296;2023-04-16T07:45:55;7.85;;;5.32;;
55007;SDS011;40902;45.116;21.296;2023-04-16T07:48:21;9.20;;;5.18;;
55007;SDS011;40902;45.116;21.296;2023-04-16T07:50:47;27.40;;;15.55;;
55007;SDS011;40902;45.116;21.296;2023-04-16T07:53:14;27.60;;;15.52;;
55007;SDS011;40902;45.116;21.296;2023-04-16T07:55:40;96.20;;;58.10;;
55007;SDS011;40902;45.116;21.296;2023-04-16T07:58:06;106.70;;;60.10;;
55007;SDS011;40902;45.116;21.296;2023-04-16T08:00:33;60.80;;;37.83;;
55007;SDS011;40902;45.116;21.296;2023-04-16T08:03:00;78.97;;;50.38;;
55007;SDS011;40902;45.116;21.296;2023-04-16T08:05:25;33.25;;;21.98;;
55007;SDS011;40902;45.116;21.296;2023-04-16T08:07:51;47.83;;;34.28;;
55007;SDS011;40902;45.116;21.296;2023-04-16T08:10:17;17.15;;;11.95;;
55007;SDS011;40902;45.116;21.296;2023-04-16T08:12:42;32.58;;;16.88;;
55007;SDS011;40902;45.116;21.296;2023-04-16T08:15:08;72.75;;;41.83;;
55007;SDS011;40902;45.116;21.296;2023-04-16T08:17:34;63.65;;;36.33;;
55007;SDS011;40902;45.116;21.296;2023-04-16T08:20:01;35.58;;;21.75;;
55007;SDS011;40902;45.116;21.296;2023-04-16T08:22:27;62.38;;;37.78;;
55007;SDS011;40902;45.116;21.296;2023-04-16T08:24:53;40.95;;;25.67;;
55007;SDS011;40902;45.116;21.296;2023-04-16T08:27:18;116.15;;;61.67;;
55007;SDS011;40902;45.116;21.296;2023-04-16T08:29:44;27.52;;;22.98;;
55007;SDS011;40902;45.116;21.296;2023-04-16T08:32:10;9.45;;;6.70;;
55007;SDS011;40902;45.116;21.296;2023-04-16T08:34:36;8.07;;;6.90;;
55007;SDS011;40902;45.116;21.296;2023-04-16T08:37:01;12.30;;;8.60;;
55007;SDS011;40902;45.116;21.296;2023-04-16T08:39:27;6.35;;;3.10;;
55007;SDS011;40902;45.116;21.296;2023-04-16T08:41:53;4.43;;;2.75;;
55007;SDS011;40902;45.116;21.296;2023-04-16T08:44:20;5.85;;;3.70;;
55007;SDS011;40902;45.116;21.296;2023-04-16T08:46:50;9.70;;;8.55;;
55007;SDS011;40902;45.116;21.296;2023-04-16T08:49:21;65.57;;;54.22;;
55007;SDS011;40902;45.116;21.296;2023-04-16T08:51:51;264.05;;;209.70;;
55007;SDS011;40902;45.116;21.296;2023-04-16T08:54:31;111.25;;;87.75;;
55007;SDS011;40902;45.116;21.296;2023-04-16T08:56:59;877.00;;;646.53;;
55007;SDS011;40902;45.116;21.296;2023-04-16T08:59:27;1121.38;;;830.67;;
55007;SDS011;40902;45.116;21.296;2023-04-16T09:01:56;1126.88;;;785.67;;
55007;SDS011;40902;45.116;21.296;2023-04-16T09:04:25;74.35;;;56.53;;
55007;SDS011;40902;45.116;21.296;2023-04-16T09:06:52;10.27;;;6.40;;
55007;SDS011;40902;45.116;21.296;2023-04-16T09:09:22;304.52;;;239.15;;
55007;SDS011;40902;45.116;21.296;2023-04-16T09:11:50;308.10;;;243.00;;
55007;SDS011;40902;45.116;21.296;2023-04-16T09:14:17;393.25;;;318.25;;
55007;SDS011;40902;45.116;21.296;2023-04-16T09:16:44;84.55;;;69.88;;
55007;SDS011;40902;45.116;21.296;2023-04-16T09:19:12;9.13;;;7.32;;
55007;SDS011;40902;45.116;21.296;2023-04-16T09:21:39;388.90;;;315.33;;
55007;SDS011;40902;45.116;21.296;2023-04-16T09:24:06;748.42;;;624.58;;
55007;SDS011;40902;45.116;21.296;2023-04-16T09:26:33;806.63;;;642.75;;
55007;SDS011;40902;45.116;21.296;2023-04-16T09:28:59;613.22;;;485.38;;
55007;SDS011;40902;45.116;21.296;2023-04-16T09:31:25;339.63;;;300.38;;
55007;SDS011;40902;45.116;21.296;2023-04-16T09:36:26;249.32;;;203.55;;
55007;SDS011;40902;45.116;21.296;2023-04-16T09:38:52;438.40;;;335.70;;
55007;SDS011;40902;45.116;21.296;2023-04-16T09:41:19;514.78;;;405.00;;
55007;SDS011;40902;45.116;21.296;2023-04-16T09:46:23;650.00;;;502.00;;
55007;SDS011;40902;45.116;21.296;2023-04-16T09:48:49;159.25;;;111.90;;
55007;SDS011;40902;45.116;21.296;2023-04-16T09:51:15;401.77;;;322.20;;
55007;SDS011;40902;45.116;21.296;2023-04-16T09:53:40;132.40;;;88.30;;
55007;SDS011;40902;45.116;21.296;2023-04-16T09:56:07;265.75;;;224.13;;
55007;SDS011;40902;45.116;21.296;2023-04-16T09:58:36;44.03;;;37.88;;
55007;SDS011;40902;45.116;21.296;2023-04-16T10:01:04;796.50;;;692.13;;
55007;SDS011;40902;45.116;21.296;2023-04-16T10:03:31;790.97;;;621.85;;
55007;SDS011;40902;45.116;21.296;2023-04-16T10:05:59;574.17;;;487.92;;
55007;SDS011;40902;45.116;21.296;2023-04-16T10:08:26;66.80;;;55.10;;
55007;SDS011;40902;45.116;21.296;2023-04-16T10:10:52;26.80;;;22.08;;
55007;SDS011;40902;45.116;21.296;2023-04-16T10:13:20;46.42;;;39.35;;
55007;SDS011;40902;45.116;21.296;2023-04-16T10:15:45;966.85;;;532.67;;
55007;SDS011;40902;45.116;21.296;2023-04-16T10:18:12;18.45;;;11.93;;
55007;SDS011;40902;45.116;21.296;2023-04-16T10:20:39;8.32;;;2.50;;
55007;SDS011;40902;45.116;21.296;2023-04-16T10:23:05;2.65;;;1.70;;
55007;SDS011;40902;45.116;21.296;2023-04-16T10:25:31;3.35;;;1.90;;
55007;SDS011;40902;45.116;21.296;2023-04-16T10:27:57;3.53;;;2.20;;
55007;SDS011;40902;45.116;21.296;2023-04-16T10:30:24;4.35;;;2.50;;
55007;SDS011;40902;45.116;21.296;2023-04-16T10:32:51;4.25;;;2.50;;
55007;SDS011;40902;45.116;21.296;2023-04-16T10:35:20;4.95;;;2.92;;
55007;SDS011;40902;45.116;21.296;2023-04-16T10:37:45;3.58;;;2.25;;
55007;SDS011;40902;45.116;21.296;2023-04-16T10:40:21;3.45;;;2.20;;
55007;SDS011;40902;45.116;21.296;2023-04-16T10:42:58;4.72;;;2.05;;
55007;SDS011;40902;45.116;21.296;2023-04-16T10:45:29;2.70;;;1.77;;
55007;SDS011;40902;45.116;21.296;2023-04-16T10:47:56;3.08;;;1.67;;
55007;SDS011;40902;45.116;21.296;2023-04-16T10:50:22;3.28;;;1.92;;
55007;SDS011;40902;45.116;21.296;2023-04-16T10:52:54;3.30;;;1.85;;
55007;SDS011;40902;45.116;21.296;2023-04-16T10:58:29;4.50;;;1.70;;
55007;SDS011;40902;45.116;21.296;2023-04-16T11:00:59;3.38;;;1.95;;
55007;SDS011;40902;45.116;21.296;2023-04-16T11:03:29;4.00;;;1.70;;
55007;SDS011;40902;45.116;21.296;2023-04-16T11:06:15;3.40;;;1.88;;
55007;SDS011;40902;45.116;21.296;2023-04-16T11:08:44;2.35;;;1.45;;
55007;SDS011;40902;45.116;21.296;2023-04-16T11:11:10;3.03;;;1.90;;
55007;SDS011;40902;45.116;21.296;2023-04-16T11:13:37;4.45;;;2.38;;
55007;SDS011;40902;45.116;21.296;2023-04-16T11:16:03;3.47;;;2.70;;
55007;SDS011;40902;45.116;21.296;2023-04-16T11:18:29;4.28;;;2.20;;
55007;SDS011;40902;45.116;21.296;2023-04-16T11:20:55;4.25;;;2.33;;
55007;SDS011;40902;45.116;21.296;2023-04-16T11:23:22;4.72;;;3.03;;
55007;SDS011;40902;45.116;21.296;2023-04-16T11:25:47;5.32;;;3.78;;
55007;SDS011;40902;45.116;21.296;2023-04-16T11:28:16;3.78;;;2.60;;
55007;SDS011;40902;45.116;21.296;2023-04-16T11:30:42;4.00;;;2.60;;
55007;SDS011;40902;45.116;21.296;2023-04-16T11:33:08;4.00;;;1.83;;
55007;SDS011;40902;45.116;21.296;2023-04-16T11:35:38;6.15;;;2.40;;
55007;SDS011;40902;45.116;21.296;2023-04-16T11:38:05;5.97;;;1.98;;
55007;SDS011;40902;45.116;21.296;2023-04-16T11:40:31;4.40;;;1.95;;
55007;SDS011;40902;45.116;21.296;2023-04-16T11:43:03;3.78;;;2.20;;
55007;SDS011;40902;45.116;21.296;2023-04-16T11:45:40;4.68;;;2.40;;
55007;SDS011;40902;45.116;21.296;2023-04-16T11:48:06;3.60;;;1.60;;
55007;SDS011;40902;45.116;21.296;2023-04-16T11:50:32;2.53;;;1.65;;
55007;SDS011;40902;45.116;21.296;2023-04-16T11:53:02;3.15;;;1.95;;
55007;SDS011;40902;45.116;21.296;2023-04-16T11:55:28;3.40;;;1.90;;
55007;SDS011;40902;45.116;21.296;2023-04-16T11:57:55;2.50;;;1.58;;
55007;SDS011;40902;45.116;21.296;2023-04-16T12:00:21;12.10;;;7.30;;
55007;SDS011;40902;45.116;21.296;2023-04-16T12:02:53;5.22;;;3.15;;
55007;SDS011;40902;45.116;21.296;2023-04-16T12:07:59;9.15;;;5.72;;
55007;SDS011;40902;45.116;21.296;2023-04-16T12:10:26;2.70;;;1.63;;
55007;SDS011;40902;45.116;21.296;2023-04-16T12:12:52;5.75;;;3.47;;
55007;SDS011;40902;45.116;21.296;2023-04-16T12:15:18;4.45;;;2.90;;
55007;SDS011;40902;45.116;21.296;2023-04-16T12:17:44;4.38;;;2.60;;
55007;SDS011;40902;45.116;21.296;2023-04-16T12:20:11;6.05;;;4.03;;
55007;SDS011;40902;45.116;21.296;2023-04-16T12:22:38;6.70;;;5.05;;
55007;SDS011;40902;45.116;21.296;2023-04-16T12:25:11;7.28;;;4.22;;
55007;SDS011;40902;45.116;21.296;2023-04-16T12:27:44;3.45;;;2.40;;
55007;SDS011;40902;45.116;21.296;2023-04-16T12:30:11;4.38;;;2.50;;
55007;SDS011;40902;45.116;21.296;2023-04-16T12:32:37;2.90;;;2.38;;
55007;SDS011;40902;45.116;21.296;2023-04-16T12:35:03;3.80;;;2.00;;
55007;SDS011;40902;45.116;21.296;2023-04-16T12:37:29;2.70;;;1.92;;
55007;SDS011;40902;45.116;21.296;2023-04-16T12:39:55;3.65;;;2.40;;
55007;SDS011;40902;45.116;21.296;2023-04-16T12:42:21;3.10;;;1.70;;
55007;SDS011;40902;45.116;21.296;2023-04-16T12:44:47;3.92;;;2.10;;
55007;SDS011;40902;45.116;21.296;2023-04-16T12:47:12;4.63;;;2.50;;
55007;SDS011;40902;45.116;21.296;2023-04-16T12:49:38;3.50;;;1.77;;
55007;SDS011;40902;45.116;21.296;2023-04-16T12:52:04;2.78;;;1.90;;
55007;SDS011;40902;45.116;21.296;2023-04-16T12:54:30;3.88;;;2.38;;
55007;SDS011;40902;45.116;21.296;2023-04-16T12:56:56;3.28;;;1.98;;
55007;SDS011;40902;45.116;21.296;2023-04-16T12:59:22;4.38;;;2.10;;
55007;SDS011;40902;45.116;21.296;2023-04-16T13:01:48;3.75;;;1.90;;
55007;SDS011;40902;45.116;21.296;2023-04-16T13:04:14;2.80;;;1.60;;
55007;SDS011;40902;45.116;21.296;2023-04-16T13:06:41;4.43;;;1.83;;
55007;SDS011;40902;45.116;21.296;2023-04-16T13:09:07;4.07;;;2.03;;
55007;SDS011;40902;45.116;21.296;2023-04-16T13:11:33;3.10;;;1.60;;
55007;SDS011;40902;45.116;21.296;2023-04-16T13:13:58;3.35;;;1.77;;
55007;SDS011;40902;45.116;21.296;2023-04-16T13:16:24;4.38;;;1.65;;
55007;SDS011;40902;45.116;21.296;2023-04-16T13:18:50;5.30;;;1.80;;
55007;SDS011;40902;45.116;21.296;2023-04-16T13:21:15;3.72;;;2.20;;
55007;SDS011;40902;45.116;21.296;2023-04-16T13:23:41;4.88;;;1.80;;
55007;SDS011;40902;45.116;21.296;2023-04-16T13:26:07;3.42;;;1.80;;
55007;SDS011;40902;45.116;21.296;2023-04-16T13:28:32;2.78;;;1.83;;
55007;SDS011;40902;45.116;21.296;2023-04-16T13:30:58;3.63;;;1.70;;
55007;SDS011;40902;45.116;21.296;2023-04-16T13:33:24;3.25;;;1.95;;
55007;SDS011;40902;45.116;21.296;2023-04-16T13:35:51;4.40;;;1.88;;
55007;SDS011;40902;45.116;21.296;2023-04-16T13:38:17;2.72;;;1.65;;
55007;SDS011;40902;45.116;21.296;2023-04-16T13:40:43;3.67;;;1.80;;
55007;SDS011;40902;45.116;21.296;2023-04-16T13:43:09;4.28;;;2.20;;
55007;SDS011;40902;45.116;21.296;2023-04-16T13:45:36;4.53;;;1.85;;
55007;SDS011;40902;45.116;21.296;2023-04-16T13:48:02;3.92;;;2.10;;
55007;SDS011;40902;45.116;21.296;2023-04-16T13:50:28;3.45;;;1.80;;
55007;SDS011;40902;45.116;21.296;2023-04-16T13:52:54;3.13;;;1.77;;
55007;SDS011;40902;45.116;21.296;2023-04-16T13:55:21;3.55;;;1.58;;
55007;SDS011;40902;45.116;21.296;2023-04-16T13:57:47;2.70;;;1.75;;
55007;SDS011;40902;45.116;21.296;2023-04-16T14:00:13;3.00;;;1.85;;
55007;SDS011;40902;45.116;21.296;2023-04-16T14:02:40;3.28;;;1.80;;
55007;SDS011;40902;45.116;21.296;2023-04-16T14:05:07;4.38;;;2.10;;
55007;SDS011;40902;45.116;21.296;2023-04-16T14:07:33;4.97;;;2.60;;
55007;SDS011;40902;45.116;21.296;2023-04-16T14:09:59;4.65;;;2.10;;
55007;SDS011;40902;45.116;21.296;2023-04-16T14:12:25;3.17;;;1.92;;
55007;SDS011;40902;45.116;21.296;2023-04-16T14:14:52;3.97;;;1.70;;
55007;SDS011;40902;45.116;21.296;2023-04-16T14:17:17;41.92;;;28.52;;
55007;SDS011;40902;45.116;21.296;2023-04-16T14:19:43;3.25;;;2.05;;
55007;SDS011;40902;45.116;21.296;2023-04-16T14:22:09;10.20;;;6.53;;
55007;SDS011;40902;45.116;21.296;2023-04-16T14:24:35;5.28;;;2.92;;
55007;SDS011;40902;45.116;21.296;2023-04-16T14:27:01;8.55;;;5.25;;
55007;SDS011;40902;45.116;21.296;2023-04-16T14:29:27;15.88;;;11.40;;
55007;SDS011;40902;45.116;21.296;2023-04-16T14:31:52;10.63;;;5.82;;
55007;SDS011;40902;45.116;21.296;2023-04-16T14:34:18;14.15;;;10.48;;
55007;SDS011;40902;45.116;21.296;2023-04-16T14:36:44;4.78;;;3.05;;